Time;durP1;ratioP1;P1;durP2;ratioP2;P2;SDS_P1;SDS_P2;PMS_P1;PMS_P2;Temp;Humidity;BMP_temperature;BMP_pressure;BME280_temperature;BME280_humidity;BME280_pressure;Samples;Min_cycle;Max_cycle;Signal;HPM_P1;HPM_P2
2023/03/03 00:00:53;;;;;;;13.25;5.47;;;;;;;;;;5012523;28;20149;-71
2023/03/03 00:03:23;;;;;;;14.15;5.78;;;;;;;;;;4984851;28;20056;-72
2023/03/03 00:05:50;;;;;;;14.38;6.30;;;;;;;;;;4934233;28;20336;-71
2023/03/03 00:08:17;;;;;;;15.02;5.68;;;;;;;;;;4965030;28;20082;-71
2023/03/03 00:10:45;;;;;;;19.27;6.43;;;;;;;;;;4981140;28;20062;-70
2023/03/03 00:13:12;;;;;;;;;;;;;;;;;;5003051;28;20065;-71
2023/03/03 00:15:38;;;;;;;15.43;5.88;;;;;;;;;;4977805;28;19933;-70
2023/03/03 00:18:13;;;;;;;14.02;5.50;;;;;;;;;;4988605;28;20054;-70
2023/03/03 00:20:41;;;;;;;15.68;6.32;;;;;;;;;;4995792;28;20140;-71
2023/03/03 00:23:16;;;;;;;17.00;6.38;;;;;;;;;;4986682;28;20058;-71
2023/03/03 00:25:45;;;;;;;21.70;6.55;;;;;;;;;;4967920;28;20068;-71
2023/03/03 00:28:23;;;;;;;17.67;5.78;;;;;;;;;;4982514;28;20349;-71
2023/03/03 00:30:50;;;;;;;16.67;6.20;;;;;;;;;;4971898;28;20103;-71
2023/03/03 00:33:27;;;;;;;17.00;5.93;;;;;;;;;;4974101;28;20054;-70
2023/03/03 00:35:56;;;;;;;15.88;5.63;;;;;;;;;;4945923;28;20909;-71
2023/03/03 00:38:23;;;;;;;16.38;6.40;;;;;;;;;;4988232;28;20081;-70
2023/03/03 00:40:50;;;;;;;13.35;5.65;;;;;;;;;;4999587;28;20057;-71
2023/03/03 00:43:26;;;;;;;16.90;6.30;;;;;;;;;;4984984;28;20061;-72
2023/03/03 00:45:56;;;;;;;14.88;5.47;;;;;;;;;;4950780;28;20056;-71
2023/03/03 00:48:24;;;;;;;16.33;6.05;;;;;;;;;;4989099;28;20074;-71
2023/03/03 00:50:54;;;;;;;20.30;6.70;;;;;;;;;;4991626;28;20045;-71
2023/03/03 00:53:26;;;;;;;14.65;5.70;;;;;;;;;;4948993;28;20066;-71
2023/03/03 00:55:53;;;;;;;13.90;5.93;;;;;;;;;;4964615;28;20049;-70
2023/03/03 00:58:21;;;;;;;19.90;6.93;;;;;;;;;;4957685;28;20057;-71
2023/03/03 01:00:52;;;;;;;18.55;6.15;;;;;;;;;;4980775;28;20054;-71
2023/03/03 01:03:20;;;;;;;15.57;6.03;;;;;;;;;;4973403;28;20132;-70
2023/03/03 01:05:47;;;;;;;14.90;5.68;;;;;;;;;;4941590;28;20050;-72
2023/03/03 01:08:14;;;;;;;14.35;6.15;;;;;;;;;;4968184;28;20170;-71
2023/03/03 01:10:44;;;;;;;19.30;6.45;;;;;;;;;;4974502;28;20058;-71
2023/03/03 01:13:11;;;;;;;17.65;6.45;;;;;;;;;;4975522;28;20050;-70
2023/03/03 01:15:39;;;;;;;18.48;6.35;;;;;;;;;;4970095;28;20069;-70
2023/03/03 01:18:05;;;;;;;16.13;6.70;;;;;;;;;;4984874;28;20078;-70
2023/03/03 01:20:32;;;;;;;16.35;6.13;;;;;;;;;;4985117;28;20322;-71
2023/03/03 01:22:58;;;;;;;15.43;5.47;;;;;;;;;;4989150;28;20057;-71
2023/03/03 01:25:26;;;;;;;16.83;6.05;;;;;;;;;;4994654;28;20057;-72
2023/03/03 01:27:54;;;;;;;16.65;6.15;;;;;;;;;;4992444;28;20137;-70
2023/03/03 01:30:21;;;;;;;17.33;6.55;;;;;;;;;;4995575;28;20080;-71
2023/03/03 01:32:48;;;;;;;15.50;6.38;;;;;;;;;;4995801;28;20046;-70
2023/03/03 01:35:15;;;;;;;14.30;5.35;;;;;;;;;;4996543;28;20084;-70
2023/03/03 01:37:41;;;;;;;16.38;6.53;;;;;;;;;;4987786;28;20057;-72
2023/03/03 01:40:13;;;;;;;20.33;6.20;;;;;;;;;;4993640;28;20129;-72
2023/03/03 01:42:39;;;;;;;17.60;6.28;;;;;;;;;;4995532;28;20174;-71
2023/03/03 01:45:18;;;;;;;17.38;6.75;;;;;;;;;;4992871;28;20078;-71
2023/03/03 01:47:47;;;;;;;18.63;6.90;;;;;;;;;;4977337;28;20053;-72
2023/03/03 01:50:15;;;;;;;16.88;6.45;;;;;;;;;;4987892;28;20152;-71
2023/03/03 01:52:43;;;;;;;20.27;7.00;;;;;;;;;;4966086;28;20141;-70
2023/03/03 01:55:12;;;;;;;16.58;5.97;;;;;;;;;;4979893;28;20050;-70
2023/03/03 01:57:41;;;;;;;15.45;6.38;;;;;;;;;;4962988;28;20077;-70
2023/03/03 02:00:07;;;;;;;;;;;;;;;;;;4974027;28;20152;-70
2023/03/03 02:02:36;;;;;;;13.82;4.95;;;;;;;;;;4977496;28;19965;-70
2023/03/03 02:05:02;;;;;;;15.60;6.20;;;;;;;;;;4974315;28;20149;-71
2023/03/03 02:07:31;;;;;;;15.10;5.72;;;;;;;;;;4992192;28;20050;-70
2023/03/03 02:09:59;;;;;;;18.77;6.90;;;;;;;;;;4988839;28;20068;-70
2023/03/03 02:12:28;;;;;;;16.17;6.07;;;;;;;;;;4996596;28;20137;-70
2023/03/03 02:14:55;;;;;;;18.33;6.78;;;;;;;;;;4991277;28;20053;-70
2023/03/03 02:17:24;;;;;;;18.02;6.32;;;;;;;;;;4995424;28;20058;-71
2023/03/03 02:19:56;;;;;;;15.68;6.10;;;;;;;;;;4987502;28;20140;-71
2023/03/03 02:22:27;;;;;;;17.88;6.50;;;;;;;;;;4997172;28;20130;-70
2023/03/03 02:24:58;;;;;;;14.90;5.82;;;;;;;;;;4995185;28;20070;-71
2023/03/03 02:27:27;;;;;;;16.38;5.50;;;;;;;;;;4977246;28;20178;-70
2023/03/03 02:29:53;;;;;;;;;;;;;;;;;;4981054;28;20133;-71
2023/03/03 02:32:20;;;;;;;17.45;5.18;;;;;;;;;;4978086;28;19953;-71
2023/03/03 02:34:47;;;;;;;15.75;5.93;;;;;;;;;;4964968;28;20053;-71
2023/03/03 02:37:14;;;;;;;18.05;6.00;;;;;;;;;;4987001;28;20058;-71
2023/03/03 02:39:41;;;;;;;16.98;6.03;;;;;;;;;;4987380;28;20081;-71
2023/03/03 02:42:09;;;;;;;18.95;6.30;;;;;;;;;;4995825;28;20089;-72
2023/03/03 02:44:37;;;;;;;13.73;5.68;;;;;;;;;;4996848;28;20057;-70
2023/03/03 02:47:04;;;;;;;16.52;6.45;;;;;;;;;;4972644;28;20061;-70
2023/03/03 02:49:32;;;;;;;14.50;5.28;;;;;;;;;;4986532;28;20058;-71
2023/03/03 02:51:59;;;;;;;18.98;6.28;;;;;;;;;;4993318;28;20115;-71
2023/03/03 02:54:30;;;;;;;19.10;6.50;;;;;;;;;;4996373;28;20065;-71
2023/03/03 02:56:56;;;;;;;17.55;5.97;;;;;;;;;;4944854;28;20062;-70
2023/03/03 02:59:23;;;;;;;21.40;6.43;;;;;;;;;;4990359;28;20053;-71
2023/03/03 03:01:53;;;;;;;19.13;7.10;;;;;;;;;;4913310;28;20167;-71
2023/03/03 03:04:21;;;;;;;16.83;5.88;;;;;;;;;;4978494;28;20481;-71
2023/03/03 03:06:48;;;;;;;18.33;6.80;;;;;;;;;;4985971;28;20161;-71
2023/03/03 03:09:15;;;;;;;17.95;6.32;;;;;;;;;;4975842;28;20309;-71
2023/03/03 03:11:42;;;;;;;17.98;7.13;;;;;;;;;;4970414;28;20066;-71
2023/03/03 03:14:09;;;;;;;19.30;7.15;;;;;;;;;;4962293;28;20077;-70
2023/03/03 03:16:36;;;;;;;15.90;5.72;;;;;;;;;;4991792;28;20061;-71
2023/03/03 03:19:04;;;;;;;16.02;5.95;;;;;;;;;;4964912;28;20054;-71
2023/03/03 03:21:31;;;;;;;15.93;6.32;;;;;;;;;;4921940;28;20054;-70
2023/03/03 03:23:58;;;;;;;16.67;6.60;;;;;;;;;;4950390;28;20053;-71
2023/03/03 03:26:25;;;;;;;19.27;6.53;;;;;;;;;;4964433;28;20058;-71
2023/03/03 03:28:52;;;;;;;16.27;6.53;;;;;;;;;;4985710;28;20054;-71
2023/03/03 03:31:19;;;;;;;14.90;5.75;;;;;;;;;;4965843;28;20062;-70
2023/03/03 03:33:46;;;;;;;17.83;6.53;;;;;;;;;;4986975;28;20077;-71
2023/03/03 03:36:14;;;;;;;17.13;6.53;;;;;;;;;;4967968;28;20054;-70
2023/03/03 03:38:41;;;;;;;14.70;6.10;;;;;;;;;;4968076;28;20062;-71
2023/03/03 03:41:07;;;;;;;18.55;6.55;;;;;;;;;;4995862;28;20304;-70
2023/03/03 03:43:34;;;;;;;18.42;6.68;;;;;;;;;;4988452;28;20064;-71
2023/03/03 03:46:01;;;;;;;15.63;5.97;;;;;;;;;;4979889;28;20143;-70
2023/03/03 03:48:27;;;;;;;20.83;6.90;;;;;;;;;;4993087;28;20064;-71
2023/03/03 03:50:54;;;;;;;17.77;6.22;;;;;;;;;;4994226;28;20062;-70
2023/03/03 03:53:22;;;;;;;17.45;6.28;;;;;;;;;;4990958;28;20062;-71
2023/03/03 03:55:49;;;;;;;17.88;6.50;;;;;;;;;;5000315;28;20123;-72
2023/03/03 03:58:15;;;;;;;17.58;6.50;;;;;;;;;;4986333;28;20495;-71
2023/03/03 04:00:42;;;;;;;15.95;6.07;;;;;;;;;;4971386;28;20053;-71
2023/03/03 04:03:09;;;;;;;17.65;6.47;;;;;;;;;;4967446;28;20058;-71
2023/03/03 04:05:36;;;;;;;18.75;6.38;;;;;;;;;;4967850;28;20058;-71
2023/03/03 04:08:03;;;;;;;17.02;6.38;;;;;;;;;;4967027;28;20073;-70
2023/03/03 04:10:30;;;;;;;20.92;7.13;;;;;;;;;;4981350;28;20073;-70
2023/03/03 04:12:57;;;;;;;17.27;6.82;;;;;;;;;;4997744;28;20057;-71
2023/03/03 04:15:24;;;;;;;19.10;6.60;;;;;;;;;;4978071;28;20054;-70
2023/03/03 04:17:51;;;;;;;17.63;6.85;;;;;;;;;;4987743;28;20045;-71
2023/03/03 04:20:18;;;;;;;17.67;6.45;;;;;;;;;;4973069;28;21032;-70
2023/03/03 04:22:45;;;;;;;17.02;6.85;;;;;;;;;;4975701;28;20053;-71
2023/03/03 04:25:14;;;;;;;20.83;6.65;;;;;;;;;;4984586;28;20062;-70
2023/03/03 04:27:43;;;;;;;17.83;6.78;;;;;;;;;;4994568;28;20049;-70
2023/03/03 04:30:09;;;;;;;;;;;;;;;;;;4988002;28;20352;-70
2023/03/03 04:32:36;;;;;;;;;;;;;;;;;;4951442;28;19925;-71
2023/03/03 04:35:02;;;;;;;;;;;;;;;;;;4982309;28;19926;-70
2023/03/03 04:37:29;;;;;;;;;;;;;;;;;;4989810;28;19925;-71
2023/03/03 04:39:55;;;;;;;;;;;;;;;;;;4996997;28;19922;-71
2023/03/03 04:42:21;;;;;;;;;;;;;;;;;;4992111;28;19933;-71
2023/03/03 04:44:48;;;;;;;;;;;;;;;;;;4976806;28;19926;-71
2023/03/03 04:47:14;;;;;;;;;;;;;;;;;;4978748;28;19949;-70
2023/03/03 04:49:40;;;;;;;;;;;;;;;;;;4977471;28;19964;-71
2023/03/03 04:52:07;;;;;;;;;;;;;;;;;;4963034;28;19921;-72
2023/03/03 04:54:33;;;;;;;;;;;;;;;;;;4972835;28;19933;-70
2023/03/03 04:57:00;;;;;;;;;;;;;;;;;;4979675;28;20026;-71
2023/03/03 04:59:27;;;;;;;;;;;;;;;;;;4971505;28;19925;-71
2023/03/03 05:01:54;;;;;;;;;;;;;;;;;;4976974;28;19925;-71
2023/03/03 05:04:20;;;;;;;;;;;;;;;;;;4990413;28;19926;-69
2023/03/03 05:06:46;;;;;;;;;;;;;;;;;;4964252;28;19952;-70
2023/03/03 05:09:13;;;;;;;;;;;;;;;;;;4969011;28;19926;-71
2023/03/03 05:11:39;;;;;;;;;;;;;;;;;;4965506;28;19936;-71
2023/03/03 05:14:07;;;;;;;;;;;;;;;;;;4973282;28;19932;-71
2023/03/03 05:16:33;;;;;;;;;;;;;;;;;;4975250;28;20138;-71
2023/03/03 05:18:59;;;;;;;;;;;;;;;;;;4979544;28;20223;-72
2023/03/03 05:21:25;;;;;;;;;;;;;;;;;;4975379;28;19926;-72
2023/03/03 05:23:52;;;;;;;;;;;;;;;;;;4972506;28;19922;-71
2023/03/03 05:26:18;;;;;;;;;;;;;;;;;;4952347;28;19926;-71
2023/03/03 05:28:45;;;;;;;;;;;;;;;;;;4971768;28;19925;-71
2023/03/03 05:31:11;;;;;;;;;;;;;;;;;;4965312;28;19925;-71
2023/03/03 05:33:37;;;;;;;;;;;;;;;;;;4991112;28;19940;-71
2023/03/03 05:36:04;;;;;;;;;;;;;;;;;;4992314;28;20010;-71
2023/03/03 05:38:30;;;;;;;;;;;;;;;;;;4993229;28;19940;-70
2023/03/03 05:40:56;;;;;;;;;;;;;;;;;;4988753;28;19925;-71
2023/03/03 05:43:23;;;;;;;;;;;;;;;;;;4991558;28;19925;-71
2023/03/03 05:45:49;;;;;;;;;;;;;;;;;;4997020;28;20012;-71
2023/03/03 05:48:16;;;;;;;;;;;;;;;;;;4963436;28;20012;-70
2023/03/03 05:50:42;;;;;;;;;;;;;;;;;;4996172;28;20360;-70
2023/03/03 05:53:09;;;;;;;;;;;;;;;;;;4950816;28;19937;-71
2023/03/03 05:55:35;;;;;;;;;;;;;;;;;;4993208;28;19929;-71
2023/03/03 05:58:01;;;;;;;;;;;;;;;;;;4969654;28;20019;-70
2023/03/03 06:00:28;;;;;;;;;;;;;;;;;;4993450;28;20029;-70
2023/03/03 06:02:54;;;;;;;;;;;;;;;;;;4986526;28;19925;-70
2023/03/03 06:05:21;;;;;;;;;;;;;;;;;;4997124;28;19940;-71
2023/03/03 06:07:48;;;;;;;;;;;;;;;;;;4991937;28;19929;-71
2023/03/03 06:10:17;;;;;;;;;;;;;;;;;;4989211;28;19921;-71
2023/03/03 06:12:44;;;;;;;;;;;;;;;;;;4940752;28;19925;-70
2023/03/03 06:15:10;;;;;;;;;;;;;;;;;;4987658;28;19925;-71
2023/03/03 06:17:37;;;;;;;;;;;;;;;;;;4964658;28;19926;-71
2023/03/03 06:20:03;;;;;;;;;;;;;;;;;;4900108;28;19990;-70
2023/03/03 06:22:30;;;;;;;;;;;;;;;;;;4904966;28;19927;-71
2023/03/03 06:24:56;;;;;;;;;;;;;;;;;;4928708;28;19944;-71
2023/03/03 06:27:22;;;;;;;;;;;;;;;;;;4939175;28;19934;-71
2023/03/03 06:29:50;;;;;;;;;;;;;;;;;;4956917;28;19936;-72
2023/03/03 06:32:16;;;;;;;;;;;;;;;;;;4966328;28;22050;-71
2023/03/03 06:34:43;;;;;;;;;;;;;;;;;;4974116;28;20040;-71
2023/03/03 06:37:09;;;;;;;;;;;;;;;;;;4981626;28;19944;-70
2023/03/03 06:39:36;;;;;;;;;;;;;;;;;;4963029;28;20005;-71
2023/03/03 06:42:02;;;;;;;;;;;;;;;;;;4926580;28;20311;-71
2023/03/03 06:44:28;;;;;;;;;;;;;;;;;;4964543;28;19925;-71
2023/03/03 06:46:56;;;;;;;;;;;;;;;;;;4982684;28;20021;-70
2023/03/03 06:49:23;;;;;;;;;;;;;;;;;;4982236;28;19926;-71
2023/03/03 06:51:52;;;;;;;;;;;;;;;;;;4975099;28;19995;-71
2023/03/03 06:54:19;;;;;;;;;;;;;;;;;;4983870;28;19933;-71
2023/03/03 06:56:45;;;;;;;;;;;;;;;;;;4992369;28;19955;-71
2023/03/03 06:59:12;;;;;;;;;;;;;;;;;;4983087;28;19964;-70
2023/03/03 07:01:38;;;;;;;;;;;;;;;;;;4964777;28;19929;-71
2023/03/03 07:04:05;;;;;;;;;;;;;;;;;;4983210;28;20086;-70
2023/03/03 07:06:31;;;;;;;;;;;;;;;;;;4980792;28;19928;-71
2023/03/03 07:08:58;;;;;;;;;;;;;;;;;;4995638;28;20001;-72
2023/03/03 07:11:24;;;;;;;;;;;;;;;;;;4983908;28;19925;-71
2023/03/03 07:13:51;;;;;;;;;;;;;;;;;;4953186;28;19926;-71
2023/03/03 07:16:17;;;;;;;;;;;;;;;;;;4966472;28;21440;-70
2023/03/03 07:18:44;;;;;;;;;;;;;;;;;;4988732;28;19925;-71
2023/03/03 07:21:10;;;;;;;;;;;;;;;;;;4984019;28;19925;-70
2023/03/03 07:23:41;;;;;;;;;;;;;;;;;;4967454;28;20011;-70
2023/03/03 07:26:07;;;;;;;;;;;;;;;;;;4974664;28;19957;-71
2023/03/03 07:28:34;;;;;;;;;;;;;;;;;;4997947;28;19929;-71
2023/03/03 07:31:00;;;;;;;;;;;;;;;;;;4962709;28;19972;-71
2023/03/03 07:33:27;;;;;;;;;;;;;;;;;;4933264;28;19925;-70
2023/03/03 07:35:53;;;;;;;;;;;;;;;;;;4964339;28;19932;-71
2023/03/03 07:38:24;;;;;;;;;;;;;;;;;;4987942;28;19925;-71
2023/03/03 07:40:53;;;;;;;;;;;;;;;;;;4980860;28;19926;-71
2023/03/03 07:43:19;;;;;;;;;;;;;;;;;;4966150;28;19929;-71
2023/03/03 07:45:46;;;;;;;;;;;;;;;;;;4995511;28;20166;-71
2023/03/03 07:48:12;;;;;;;;;;;;;;;;;;4983306;28;20048;-71
2023/03/03 07:50:40;;;;;;;;;;;;;;;;;;4996943;28;19925;-71
2023/03/03 07:53:06;;;;;;;;;;;;;;;;;;4963935;28;20012;-71
2023/03/03 07:55:36;;;;;;;;;;;;;;;;;;4997125;28;19932;-71
2023/03/03 07:58:02;;;;;;;;;;;;;;;;;;4984383;28;19932;-71
2023/03/03 08:00:29;;;;;;;;;;;;;;;;;;4987199;28;19926;-71
2023/03/03 08:02:55;;;;;;;;;;;;;;;;;;4960102;28;19924;-71
2023/03/03 08:05:21;;;;;;;;;;;;;;;;;;4978491;28;19980;-71
2023/03/03 08:07:48;;;;;;;;;;;;;;;;;;4980312;28;19933;-71
2023/03/03 08:10:14;;;;;;;;;;;;;;;;;;4946916;28;19981;-71
2023/03/03 08:12:41;;;;;;;;;;;;;;;;;;4973771;28;20315;-71
2023/03/03 08:15:08;;;;;;;;;;;;;;;;;;4985904;28;19925;-70
2023/03/03 08:17:34;;;;;;;;;;;;;;;;;;4979406;28;19932;-71
2023/03/03 08:20:01;;;;;;;;;;;;;;;;;;4994828;28;20023;-71
2023/03/03 08:22:29;;;;;;;;;;;;;;;;;;4979545;28;19932;-71
2023/03/03 08:24:56;;;;;;;;;;;;;;;;;;4985607;28;20236;-71
2023/03/03 08:27:23;;;;;;;;;;;;;;;;;;4949899;28;19932;-71
2023/03/03 08:29:51;;;;;;;;;;;;;;;;;;4983817;28;19925;-71
2023/03/03 08:32:18;;;;;;;;;;;;;;;;;;4991077;28;20944;-71
2023/03/03 08:34:44;;;;;;;;;;;;;;;;;;4994340;28;19975;-71
2023/03/03 08:37:11;;;;;;;;;;;;;;;;;;4998824;28;19925;-71
2023/03/03 08:39:38;;;;;;;;;;;;;;;;;;4992905;28;19925;-70
2023/03/03 08:42:05;;;;;;;;;;;;;;;;;;4993096;28;19921;-70
2023/03/03 08:44:31;;;;;;;;;;;;;;;;;;4966412;28;19950;-71
2023/03/03 08:46:57;;;;;;;;;;;;;;;;;;4952226;28;19933;-70
2023/03/03 08:49:24;;;;;;;;;;;;;;;;;;4966035;28;19926;-71
2023/03/03 08:51:56;;;;;;;;;;;;;;;;;;4961909;28;19953;-70
2023/03/03 08:54:23;;;;;;;;;;;;;;;;;;4975665;28;20032;-71
2023/03/03 08:56:50;;;;;;;;;;;;;;;;;;4972817;28;19997;-70
2023/03/03 08:59:17;;;;;;;;;;;;;;;;;;4983454;28;19921;-71
2023/03/03 09:01:45;;;;;;;;;;;;;;;;;;4963783;28;19981;-71
2023/03/03 09:04:12;;;;;;;;;;;;;;;;;;4965842;28;19925;-70
2023/03/03 09:06:38;;;;;;;;;;;;;;;;;;4990499;28;19976;-70
2023/03/03 09:09:05;;;;;;;;;;;;;;;;;;5000646;28;19921;-70
2023/03/03 09:11:31;;;;;;;;;;;;;;;;;;4997861;28;19936;-71
2023/03/03 09:13:57;;;;;;;;;;;;;;;;;;4967376;28;19921;-72
2023/03/03 09:16:24;;;;;;;;;;;;;;;;;;4985726;28;20237;-70
2023/03/03 09:18:50;;;;;;;;;;;;;;;;;;4996794;28;20043;-70
2023/03/03 09:21:16;;;;;;;;;;;;;;;;;;4989417;28;19932;-70
2023/03/03 09:23:43;;;;;;;;;;;;;;;;;;4967967;28;19932;-70
2023/03/03 09:26:09;;;;;;;;;;;;;;;;;;4992511;28;20123;-69
2023/03/03 09:28:36;;;;;;;;;;;;;;;;;;4989836;28;20233;-70
2023/03/03 09:31:02;;;;;;;;;;;;;;;;;;4953463;28;19980;-71
2023/03/03 09:33:29;;;;;;;;;;;;;;;;;;4982816;28;20034;-70
2023/03/03 09:35:56;;;;;;;;;;;;;;;;;;4983349;28;19925;-71
2023/03/03 09:38:23;;;;;;;;;;;;;;;;;;4949721;28;19984;-71
2023/03/03 09:40:51;;;;;;;;;;;;;;;;;;4987171;28;19984;-70
2023/03/03 09:43:22;;;;;;;;;;;;;;;;;;4977580;28;19925;-70
2023/03/03 09:45:49;;;;;;;;;;;;;;;;;;4970018;28;19925;-71
2023/03/03 09:48:18;;;;;;;;;;;;;;;;;;4973491;28;20849;-70
2023/03/03 09:50:45;;;;;;;;;;;;;;;;;;5008341;28;20041;-70
2023/03/03 09:53:11;;;;;;;;;;;;;;;;;;4971235;28;19971;-70
2023/03/03 09:55:38;;;;;;;;;;;;;;;;;;4976708;28;19946;-71
2023/03/03 09:58:05;;;;;;;;;;;;;;;;;;4953889;28;19930;-70
2023/03/03 10:00:31;;;;;;;;;;;;;;;;;;5004202;28;19945;-70
2023/03/03 10:02:57;;;;;;;;;;;;;;;;;;4973460;28;20126;-70
2023/03/03 10:05:25;;;;;;;;;;;;;;;;;;4986015;28;19925;-70
2023/03/03 10:07:55;;;;;;;;;;;;;;;;;;4973766;28;19949;-71
2023/03/03 10:10:21;;;;;;;;;;;;;;;;;;4980610;28;19926;-71
2023/03/03 10:12:50;;;;;;;;;;;;;;;;;;4945293;28;19929;-70
2023/03/03 10:15:16;;;;;;;;;;;;;;;;;;4955936;28;19925;-71
2023/03/03 10:17:43;;;;;;;;;;;;;;;;;;4960338;28;19985;-71
2023/03/03 10:20:09;;;;;;;;;;;;;;;;;;4974373;28;20006;-71
2023/03/03 10:22:35;;;;;;;;;;;;;;;;;;4960433;28;20000;-71
2023/03/03 10:25:03;;;;;;;;;;;;;;;;;;4957535;28;20348;-71
2023/03/03 10:27:30;;;;;;;;;;;;;;;;;;4972524;28;19934;-70
2023/03/03 10:29:58;;;;;;;;;;;;;;;;;;4943287;28;20001;-71
2023/03/03 10:32:25;;;;;;;;;;;;;;;;;;4940545;28;19932;-69
2023/03/03 10:34:54;;;;;;;;;;;;;;;;;;4964528;28;19953;-71
2023/03/03 10:37:20;;;;;;;;;;;;;;;;;;4972934;28;19925;-72
2023/03/03 10:39:47;;;;;;;;;;;;;;;;;;4942470;28;19926;-72
2023/03/03 11:02:57;;;;;;;;;;;;;;;;;;6146957;22;2189465;-69
2023/03/03 11:08:03;;;;;;;;;;;;;;;;;;6185329;23;19926;-68
2023/03/03 11:10:29;;;;;;;;;;;;;;;;;;6149995;23;19944;-68
2023/03/03 11:12:57;;;;;;;;;;;;;;;;;;6103534;23;19924;-68
2023/03/03 11:15:24;;;;;;;;;;;;;;;;;;6127583;23;19920;-72
2023/03/03 11:17:57;;;;;;;;;;;;;;;;;;6145353;23;19977;-69
2023/03/03 11:20:23;;;;;;;;;;;;;;;;;;6191520;23;20058;-71
2023/03/03 11:22:52;;;;;;;;;;;;;;;;;;6167206;23;19928;-70
2023/03/03 11:25:18;;;;;;;;;;;;;;;;;;6157926;23;19928;-70
2023/03/03 11:27:44;;;;;;;;;;;;;;;;;;6204721;23;19923;-69
2023/03/03 11:30:11;;;;;;;;;;;;;;;;;;6188878;22;19950;-67
2023/03/03 11:32:37;;;;;;;;;;;;;;;;;;6189318;23;19923;-67
2023/03/03 11:35:03;;;;;;;;;;;;;;;;;;6182862;23;20021;-67
2023/03/03 11:37:30;;;;;;;;;;;;;;;;;;6186219;23;19928;-66
2023/03/03 11:39:56;;;;;;;;;;;;;;;;;;6157780;23;19931;-66
2023/03/03 11:42:22;;;;;;;;;;;;;;;;;;6183616;23;20342;-66
2023/03/03 11:44:49;;;;;;;;;;;;;;;;;;6087332;23;20241;-67
2023/03/03 11:47:15;;;;;;;;;;;;;;;;;;6159849;23;19927;-66
2023/03/03 11:49:45;;;;;;;;;;;;;;;;;;6187216;23;19924;-67
2023/03/03 11:52:14;;;;;;;;;;;;;;;;;;6188467;22;19927;-67
2023/03/03 11:54:51;;;;;;;;;;;;;;;;;;6198433;23;19950;-67
2023/03/03 11:57:17;;;;;;;;;;;;;;;;;;6204110;23;20232;-67
2023/03/03 11:59:46;;;;;;;;;;;;;;;;;;6155009;22;19924;-67
2023/03/03 12:02:12;;;;;;;;;;;;;;;;;;6155071;23;19924;-68
2023/03/03 12:04:38;;;;;;;;;;;;;;;;;;6169030;22;19923;-67
2023/03/03 12:07:05;;;;;;;;;;;;;;;;;;6169034;22;19953;-67
2023/03/03 12:09:32;;;;;;;;;;;;;;;;;;6138644;23;19924;-67
2023/03/03 12:11:59;;;;;;;;;;;;;;;;;;6130159;23;19924;-68
2023/03/03 12:14:25;;;;;;;;;;;;;;;;;;6107152;23;19995;-68
2023/03/03 12:16:53;;;;;;;;;;;;;;;;;;6178382;22;19924;-68
2023/03/03 12:19:19;;;;;;;;;;;;;;;;;;6201141;22;19985;-68
2023/03/03 12:21:50;;;;;;;;;;;;;;;;;;6185721;23;20077;-67
2023/03/03 12:24:21;;;;;;;;;;;;;;;;;;6074302;23;19931;-68
2023/03/03 12:26:49;;;;;;;;;;;;;;;;;;6124063;23;19924;-68
2023/03/03 12:29:16;;;;;;;;;;;;;;;;;;6122916;23;19944;-67
2023/03/03 12:31:46;;;;;;;;;;;;;;;;;;6164144;23;19931;-69
2023/03/03 12:34:12;;;;;;;;;;;;;;;;;;6080267;23;20041;-68
2023/03/03 12:36:40;;;;;;;;;;;;;;;;;;6141521;23;19924;-68
2023/03/03 12:39:06;;;;;;;;;;;;;;;;;;6099272;23;20007;-68
2023/03/03 12:41:35;;;;;;;;;;;;;;;;;;6135708;23;19924;-70
2023/03/03 12:44:04;;;;;;;;;;;;;;;;;;6110139;23;19932;-71
2023/03/03 12:46:30;;;;;;;;;;;;;;;;;;6182725;23;19923;-68
2023/03/03 12:49:08;;;;;;;;;;;;;;;;;;6162832;23;19923;-68
2023/03/03 12:51:34;;;;;;;;;;;;;;;;;;6177800;22;20370;-68
2023/03/03 12:54:01;;;;;;;;;;;;;;;;;;6163625;22;19962;-68
2023/03/03 12:56:27;;;;;;;;;;;;;;;;;;6218636;23;19923;-69
2023/03/03 12:58:55;;;;;;;;;;;;;;;;;;6124342;23;19930;-70
2023/03/03 13:01:27;;;;;;;;;;;;;;;;;;6157189;23;19928;-69
2023/03/03 13:03:53;;;;;;;;;;;;;;;;;;6098052;23;20464;-68
2023/03/03 13:06:19;;;;;;;;;;;;;;;;;;6130574;23;20337;-69
2023/03/03 13:08:47;;;;;;;;;;;;;;;;;;6159105;23;19931;-68
2023/03/03 13:11:16;;;;;;;;;;;;;;;;;;6130279;23;19935;-68
